createdAt,value
2022-12-19T00:01:14.197Z,1033.4
2022-12-19T00:06:47.377Z,1033.3
2022-12-19T00:12:03.067Z,1033.3
2022-12-19T00:17:27.953Z,1033.1
2022-12-19T00:23:16.608Z,1033.3
2022-12-19T00:28:31.584Z,1033.3
2022-12-19T00:34:02.396Z,1033.2
2022-12-19T00:39:52.019Z,1033.3
2022-12-19T00:45:27.398Z,1033.2
2022-12-19T00:50:50.999Z,1033.2
2022-12-19T00:56:08.332Z,1033.1
2022-12-19T01:02:02.649Z,1033.1
2022-12-19T01:07:32.691Z,1033.2
2022-12-19T01:12:47.290Z,1033.1
2022-12-19T01:18:33.403Z,1033.2
2022-12-19T01:24:01.278Z,1033.1
2022-12-19T01:29:27.351Z,1033
2022-12-19T01:34:53.688Z,1033
2022-12-19T01:40:26.019Z,1033.1
2022-12-19T01:46:03.098Z,1033.1
2022-12-19T01:51:33.960Z,1033
2022-12-19T01:57:05.656Z,1032.9
2022-12-19T02:02:46.908Z,1032.9
2022-12-19T02:07:52.582Z,1033
2022-12-19T02:13:29.593Z,1033.1
2022-12-19T02:19:15.506Z,1033
2022-12-19T02:24:27.249Z,1032.9
2022-12-19T02:30:04.035Z,1032.8
2022-12-19T02:35:34.517Z,1032.8
2022-12-19T02:41:08.354Z,1032.7
2022-12-19T02:46:40.742Z,1032.7
2022-12-19T02:52:08.974Z,1032.7
2022-12-19T02:57:46.445Z,1032.5
2022-12-19T03:03:11.878Z,1032.6
2022-12-19T03:08:57.376Z,1032.6
2022-12-19T03:14:29.874Z,1032.6
2022-12-19T03:19:47.550Z,1032.4
2022-12-19T03:25:33.348Z,1032.6
2022-12-19T03:30:51.286Z,1032.6
2022-12-19T03:36:24.101Z,1032.7
2022-12-19T03:42:08.794Z,1032.7
2022-12-19T03:47:29.665Z,1032.7
2022-12-19T03:53:15.336Z,1032.7
2022-12-19T03:58:28.775Z,1032.6
2022-12-19T04:03:59.476Z,1032.5
2022-12-19T04:09:36.607Z,1032.5
2022-12-19T04:15:06.359Z,1032.5
2022-12-19T04:20:25.490Z,1032.5
2022-12-19T04:26:02.480Z,1032.4
2022-12-19T04:37:07.207Z,1032.5
2022-12-19T04:42:47.826Z,1032.5
2022-12-19T04:48:22.083Z,1032.5
2022-12-19T04:53:47.998Z,1032.5
2022-12-19T04:59:09.933Z,1032.5
2022-12-19T05:04:37.667Z,1032.5
2022-12-19T05:10:13.812Z,1032.3
2022-12-19T05:15:48.609Z,1032.3
2022-12-19T05:21:27.900Z,1032.4
2022-12-19T05:26:49.608Z,1032.5
2022-12-19T05:32:38.633Z,1032.6
2022-12-19T05:37:43.362Z,1032.4
2022-12-19T05:43:15.126Z,1032.5
2022-12-19T05:48:57.646Z,1032.5
2022-12-19T05:54:24.427Z,1032.5
2022-12-19T05:59:57.094Z,1032.5
2022-12-19T06:05:21.739Z,1032.4
2022-12-19T06:11:13.182Z,1032.4
2022-12-19T06:16:24.104Z,1032.6
2022-12-19T06:22:15.500Z,1032.5
2022-12-19T06:27:26.084Z,1032.5
2022-12-19T06:33:07.173Z,1032.7
2022-12-19T06:38:45.992Z,1032.6
2022-12-19T06:44:14.887Z,1032.6
2022-12-19T06:49:28.360Z,1032.6
2022-12-19T06:54:59.965Z,1032.5
2022-12-19T07:00:38.472Z,1032.4
2022-12-19T07:06:24.840Z,1032.5
2022-12-19T07:11:44.799Z,1032.3
2022-12-19T07:17:06.959Z,1032.5
2022-12-19T07:22:38.283Z,1032.4
2022-12-19T07:28:07.949Z,1032.5
2022-12-19T07:33:59.958Z,1032.5
2022-12-19T07:39:29.183Z,1032.6
2022-12-19T07:44:55.941Z,1032.6
2022-12-19T07:50:30.863Z,1032.7
2022-12-19T07:56:03.172Z,1032.7
2022-12-19T08:01:30.111Z,1032.7
2022-12-19T08:06:52.307Z,1032.6
2022-12-19T08:12:19.179Z,1032.7
2022-12-19T08:18:04.161Z,1032.8
2022-12-19T08:23:19.908Z,1032.7
2022-12-19T08:29:05.875Z,1032.7
2022-12-19T08:34:45.855Z,1032.7
2022-12-19T08:40:15.739Z,1032.7
2022-12-19T08:45:50.812Z,1032.6
2022-12-19T08:51:19.737Z,1032.6
2022-12-19T08:56:52.016Z,1032.6
2022-12-19T09:02:03.735Z,1032.8
2022-12-19T09:07:37.643Z,1032.8
2022-12-19T09:13:01.240Z,1032.7
2022-12-19T09:18:33.794Z,1032.7
2022-12-19T09:24:28.589Z,1032.6
2022-12-19T09:29:36.562Z,1032.7
2022-12-19T09:35:19.015Z,1032.5
2022-12-19T09:40:59.039Z,1032.6
2022-12-19T09:46:37.363Z,1032.6
2022-12-19T09:52:01.421Z,1032.5
2022-12-19T09:57:39.981Z,1032.5
2022-12-19T10:02:51.352Z,1032.4
2022-12-19T10:08:27.487Z,1032.3
2022-12-19T10:14:06.639Z,1032.3
2022-12-19T10:19:37.913Z,1032.3
2022-12-19T10:25:10.647Z,1032.2
2022-12-19T10:30:49.787Z,1032.1
2022-12-19T10:36:12.974Z,1032
2022-12-19T10:41:31.643Z,1031.9
2022-12-19T10:47:04.034Z,1031.8
2022-12-19T10:52:40.532Z,1031.7
2022-12-19T10:58:14.666Z,1031.7
2022-12-19T11:03:38.282Z,1031.6
2022-12-19T11:09:06.813Z,1031.4
2022-12-19T11:18:13.467Z,1031.3
2022-12-19T11:25:11.792Z,1031.1
2022-12-19T11:30:21.805Z,1031
2022-12-19T11:36:56.935Z,1030.8
2022-12-19T11:42:38.640Z,1030.7
2022-12-19T11:47:49.055Z,1030.7
2022-12-19T11:53:33.138Z,1030.7
2022-12-19T11:58:53.094Z,1030.8
2022-12-19T12:04:34.471Z,1030.6
2022-12-19T12:11:25.906Z,1030.4
2022-12-19T12:20:23.587Z,1030.5
2022-12-19T12:28:21.743Z,1030.2
2022-12-19T12:31:34.844Z,1030.3
2022-12-19T12:35:26.859Z,1030.2
2022-12-19T12:43:28.454Z,1030.2
2022-12-19T12:48:56.874Z,1030.2
2022-12-19T12:54:13.873Z,1030.2
2022-12-19T12:59:48.252Z,1030
2022-12-19T13:05:26.745Z,1029.9
2022-12-19T13:11:04.791Z,1029.7
2022-12-19T13:16:28.632Z,1029.8
2022-12-19T13:22:09.487Z,1029.9
2022-12-19T13:27:44.786Z,1029.8
2022-12-19T13:33:04.128Z,1029.5
2022-12-19T13:39:52.948Z,1029.3
2022-12-19T13:44:14.675Z,1029.2
2022-12-19T13:49:28.945Z,1029.4
2022-12-19T13:55:20.559Z,1029.4
2022-12-19T14:00:30.055Z,1029.5
2022-12-19T14:06:28.309Z,1029.7
2022-12-19T14:13:36.933Z,1029.8
2022-12-19T14:17:27.239Z,1029.9
2022-12-19T14:22:52.459Z,1029.7
2022-12-19T14:28:28.814Z,1029.8
2022-12-19T14:33:58.796Z,1029.8
2022-12-19T14:39:28.727Z,1029.9
2022-12-19T14:50:16.783Z,1029.9
2022-12-19T14:54:20.281Z,1029.9
2022-12-19T14:56:11.969Z,1030.1
2022-12-19T15:01:42.649Z,1030.1
2022-12-19T15:07:06.411Z,1030.2
2022-12-19T15:13:47.550Z,1030.3
2022-12-19T15:18:21.238Z,1030.3
2022-12-19T15:23:31.912Z,1030.4
2022-12-19T15:29:02.368Z,1030.5
2022-12-19T15:34:51.256Z,1030.6
2022-12-19T15:40:20.605Z,1030.6
2022-12-19T15:45:36.248Z,1030.6
2022-12-19T15:51:14.345Z,1030.9
2022-12-19T15:56:50.967Z,1030.9
2022-12-19T16:02:06.186Z,1030.8
2022-12-19T16:08:03.033Z,1030.7
2022-12-19T16:13:30.176Z,1031
2022-12-19T16:19:05.086Z,1030.9
2022-12-19T16:24:40.404Z,1030.9
2022-12-19T16:29:56.767Z,1030.9
2022-12-19T16:40:46.932Z,1030.7
2022-12-19T16:46:31.398Z,1030.7
2022-12-19T16:51:51.292Z,1030.7
2022-12-19T16:57:37.544Z,1030.8
2022-12-19T17:02:58.932Z,1030.8
2022-12-19T17:08:30.627Z,1030.7
2022-12-19T17:14:03.069Z,1030.8
2022-12-19T17:19:43.038Z,1030.8
2022-12-19T17:25:11.668Z,1030.8
2022-12-19T17:30:32.714Z,1030.9
2022-12-19T17:36:27.729Z,1030.8
2022-12-19T17:41:30.998Z,1030.8
2022-12-19T17:47:03.552Z,1030.6
2022-12-19T17:52:56.725Z,1030.7
2022-12-19T17:58:19.053Z,1030.7
2022-12-19T18:03:51.029Z,1030.9
2022-12-19T18:09:19.359Z,1030.8
2022-12-19T18:15:00.857Z,1030.7
2022-12-19T18:20:31.088Z,1030.8
2022-12-19T18:26:04.411Z,1030.7
2022-12-19T18:31:12.540Z,1030.8
2022-12-19T18:37:07.640Z,1030.8
2022-12-19T18:42:29.908Z,1030.8
2022-12-19T18:47:59.710Z,1030.7
2022-12-19T18:53:38.715Z,1030.8
2022-12-19T18:58:49.774Z,1030.8
2022-12-19T19:04:36.667Z,1030.9
2022-12-19T19:10:00.364Z,1030.9
2022-12-19T19:15:38.695Z,1030.9
2022-12-19T19:21:14.648Z,1030.7
2022-12-19T19:26:30.580Z,1030.7
2022-12-19T19:32:06.560Z,1030.6
2022-12-19T19:37:41.987Z,1030.6
2022-12-19T19:43:05.273Z,1030.5
2022-12-19T19:48:43.425Z,1030.6
2022-12-19T19:54:10.737Z,1030.5
2022-12-19T19:59:58.039Z,1030.5
2022-12-19T20:05:29.319Z,1030.5
2022-12-19T20:10:51.923Z,1030.4
2022-12-19T20:16:06.593Z,1030.4
2022-12-19T20:21:51.814Z,1030.5
2022-12-19T20:27:32.453Z,1030.6
2022-12-19T20:32:59.891Z,1030.6
2022-12-19T20:38:24.514Z,1030.5
2022-12-19T20:43:42.499Z,1030.5
2022-12-19T20:49:32.748Z,1030.5
2022-12-19T20:54:48.502Z,1030.5
2022-12-19T21:00:32.839Z,1030.4
2022-12-19T21:06:01.705Z,1030.5
2022-12-19T21:11:21.079Z,1030.5
2022-12-19T21:16:59.036Z,1030.3
2022-12-19T21:22:47.375Z,1030.2
2022-12-19T21:28:10.442Z,1030.2
2022-12-19T21:33:36.638Z,1030.4
2022-12-19T21:39:03.555Z,1030.2
2022-12-19T21:44:42.247Z,1030.3
2022-12-19T21:50:20.473Z,1030.2
2022-12-19T21:55:50.903Z,1030.1
2022-12-19T22:01:04.223Z,1030
2022-12-19T22:06:58.713Z,1030
2022-12-19T22:12:01.848Z,1030.1
2022-12-19T22:17:32.555Z,1030.1
2022-12-19T22:23:13.028Z,1030.4
2022-12-19T22:28:37.199Z,1030.4
2022-12-19T22:34:16.447Z,1030.1
2022-12-19T22:40:03.873Z,1030
2022-12-19T22:45:11.037Z,1029.9
2022-12-19T22:50:52.336Z,1030
2022-12-19T22:56:30.652Z,1030
2022-12-19T23:02:04.010Z,1030.1
2022-12-19T23:07:24.174Z,1030
2022-12-19T23:13:10.881Z,1030
2022-12-19T23:18:31.536Z,1029.8
2022-12-19T23:23:55.155Z,1030
2022-12-19T23:29:38.955Z,1029.8
2022-12-19T23:35:07.797Z,1029.8
2022-12-19T23:40:41.072Z,1029.9
2022-12-19T23:45:53.887Z,1030.1
2022-12-19T23:51:25.104Z,1029.8
2022-12-19T23:57:16.485Z,1029.9
